sensor_id;sensor_type;location;lat;lon;timestamp;temperature;humidity
3051;DHT22;1535;51.098;6.414;2022-10-26T00:00:12;12.40;99.90
3051;DHT22;1535;51.098;6.414;2022-10-26T00:02:41;12.40;99.90
3051;DHT22;1535;51.098;6.414;2022-10-26T00:05:08;12.40;99.90
3051;DHT22;1535;51.098;6.414;2022-10-26T00:07:35;12.40;99.90
3051;DHT22;1535;51.098;6.414;2022-10-26T00:10:02;12.50;99.90
3051;DHT22;1535;51.098;6.414;2022-10-26T00:12:29;12.60;99.90
3051;DHT22;1535;51.098;6.414;2022-10-26T00:14:57;12.60;99.90
3051;DHT22;1535;51.098;6.414;2022-10-26T00:17:24;12.60;99.90
3051;DHT22;1535;51.098;6.414;2022-10-26T00:19:51;12.60;99.90
3051;DHT22;1535;51.098;6.414;2022-10-26T00:22:18;12.60;99.90
3051;DHT22;1535;51.098;6.414;2022-10-26T00:24:45;12.50;99.90
3051;DHT22;1535;51.098;6.414;2022-10-26T00:27:11;12.50;99.90
3051;DHT22;1535;51.098;6.414;2022-10-26T00:29:38;12.50;99.90
3051;DHT22;1535;51.098;6.414;2022-10-26T00:32:08;12.50;99.90
3051;DHT22;1535;51.098;6.414;2022-10-26T00:34:35;12.50;99.90
3051;DHT22;1535;51.098;6.414;2022-10-26T00:37:02;12.50;99.90
3051;DHT22;1535;51.098;6.414;2022-10-26T00:39:29;12.50;99.90
3051;DHT22;1535;51.098;6.414;2022-10-26T00:41:56;12.50;99.90
3051;DHT22;1535;51.098;6.414;2022-10-26T00:44:57;12.40;99.90
3051;DHT22;1535;51.098;6.414;2022-10-26T00:47:33;12.40;99.90
3051;DHT22;1535;51.098;6.414;2022-10-26T00:50:06;12.30;99.90
3051;DHT22;1535;51.098;6.414;2022-10-26T00:52:34;12.30;99.90
3051;DHT22;1535;51.098;6.414;2022-10-26T00:55:02;12.40;99.90
3051;DHT22;1535;51.098;6.414;2022-10-26T00:57:29;12.30;99.90
3051;DHT22;1535;51.098;6.414;2022-10-26T00:59:57;12.30;99.90
3051;DHT22;1535;51.098;6.414;2022-10-26T01:02:26;12.30;99.90
3051;DHT22;1535;51.098;6.414;2022-10-26T01:04:55;12.30;99.90
3051;DHT22;1535;51.098;6.414;2022-10-26T01:07:24;12.30;99.90
3051;DHT22;1535;51.098;6.414;2022-10-26T01:09:52;12.30;99.90
3051;DHT22;1535;51.098;6.414;2022-10-26T01:12:20;12.40;99.90
3051;DHT22;1535;51.098;6.414;2022-10-26T01:14:48;12.40;99.90
3051;DHT22;1535;51.098;6.414;2022-10-26T01:17:26;12.40;99.90
3051;DHT22;1535;51.098;6.414;2022-10-26T01:20:29;12.50;99.90
3051;DHT22;1535;51.098;6.414;2022-10-26T01:23:05;12.40;99.90
3051;DHT22;1535;51.098;6.414;2022-10-26T01:28:38;12.40;99.90
3051;DHT22;1535;51.098;6.414;2022-10-26T01:31:18;12.50;99.90
3051;DHT22;1535;51.098;6.414;2022-10-26T01:33:50;12.50;99.90
3051;DHT22;1535;51.098;6.414;2022-10-26T01:36:26;12.50;99.90
3051;DHT22;1535;51.098;6.414;2022-10-26T01:39:00;12.50;99.90
3051;DHT22;1535;51.098;6.414;2022-10-26T01:41:31;12.50;99.90
3051;DHT22;1535;51.098;6.414;2022-10-26T01:44:02;12.50;99.90
3051;DHT22;1535;51.098;6.414;2022-10-26T01:46:35;12.50;99.90
3051;DHT22;1535;51.098;6.414;2022-10-26T01:49:07;12.60;99.90
3051;DHT22;1535;51.098;6.414;2022-10-26T01:51:37;12.60;99.90
3051;DHT22;1535;51.098;6.414;2022-10-26T01:54:04;12.70;99.90
3051;DHT22;1535;51.098;6.414;2022-10-26T01:56:35;12.70;99.90
3051;DHT22;1535;51.098;6.414;2022-10-26T01:59:21;12.80;99.90
3051;DHT22;1535;51.098;6.414;2022-10-26T02:05:14;12.90;99.90
3051;DHT22;1535;51.098;6.414;2022-10-26T02:07:52;12.90;99.90
3051;DHT22;1535;51.098;6.414;2022-10-26T02:10:29;12.90;99.90
3051;DHT22;1535;51.098;6.414;2022-10-26T02:13:05;13.00;99.90
3051;DHT22;1535;51.098;6.414;2022-10-26T02:15:40;13.00;99.90
3051;DHT22;1535;51.098;6.414;2022-10-26T02:18:16;13.00;99.90
3051;DHT22;1535;51.098;6.414;2022-10-26T02:20:48;13.00;99.90
3051;DHT22;1535;51.098;6.414;2022-10-26T02:23:17;13.00;99.90
3051;DHT22;1535;51.098;6.414;2022-10-26T02:25:48;13.00;99.90
3051;DHT22;1535;51.098;6.414;2022-10-26T02:28:19;13.00;99.90
3051;DHT22;1535;51.098;6.414;2022-10-26T02:30:51;13.00;99.90
3051;DHT22;1535;51.098;6.414;2022-10-26T02:33:21;13.00;99.90
3051;DHT22;1535;51.098;6.414;2022-10-26T02:35:51;13.00;99.90
3051;DHT22;1535;51.098;6.414;2022-10-26T02:38:20;13.00;99.90
3051;DHT22;1535;51.098;6.414;2022-10-26T02:40:50;13.00;99.90
3051;DHT22;1535;51.098;6.414;2022-10-26T02:43:18;13.00;99.90
3051;DHT22;1535;51.098;6.414;2022-10-26T02:45:50;13.00;99.90
3051;DHT22;1535;51.098;6.414;2022-10-26T02:48:18;13.00;99.90
3051;DHT22;1535;51.098;6.414;2022-10-26T02:50:58;13.00;99.90
3051;DHT22;1535;51.098;6.414;2022-10-26T02:53:29;13.10;99.90
3051;DHT22;1535;51.098;6.414;2022-10-26T02:56:02;13.10;99.90
3051;DHT22;1535;51.098;6.414;2022-10-26T02:58:33;13.10;99.90
3051;DHT22;1535;51.098;6.414;2022-10-26T03:01:02;13.10;99.90
3051;DHT22;1535;51.098;6.414;2022-10-26T03:03:29;13.10;99.90
3051;DHT22;1535;51.098;6.414;2022-10-26T03:05:57;13.10;99.90
3051;DHT22;1535;51.098;6.414;2022-10-26T03:08:26;13.10;99.90
3051;DHT22;1535;51.098;6.414;2022-10-26T03:10:52;13.10;99.90
3051;DHT22;1535;51.098;6.414;2022-10-26T03:13:20;13.10;99.90
3051;DHT22;1535;51.098;6.414;2022-10-26T03:15:46;13.00;99.90
3051;DHT22;1535;51.098;6.414;2022-10-26T03:18:14;13.00;99.90
3051;DHT22;1535;51.098;6.414;2022-10-26T03:20:43;13.00;99.90
3051;DHT22;1535;51.098;6.414;2022-10-26T03:23:11;13.00;99.90
3051;DHT22;1535;51.098;6.414;2022-10-26T03:25:39;13.00;99.90
3051;DHT22;1535;51.098;6.414;2022-10-26T03:28:05;13.00;99.90
3051;DHT22;1535;51.098;6.414;2022-10-26T03:30:33;13.10;99.90
3051;DHT22;1535;51.098;6.414;2022-10-26T03:33:00;13.10;99.90
3051;DHT22;1535;51.098;6.414;2022-10-26T03:35:26;13.10;99.90
3051;DHT22;1535;51.098;6.414;2022-10-26T03:37:53;13.20;99.90
3051;DHT22;1535;51.098;6.414;2022-10-26T03:40:22;13.20;99.90
3051;DHT22;1535;51.098;6.414;2022-10-26T03:42:49;13.20;99.90
3051;DHT22;1535;51.098;6.414;2022-10-26T03:45:16;13.20;99.90
3051;DHT22;1535;51.098;6.414;2022-10-26T03:47:43;13.20;99.90
3051;DHT22;1535;51.098;6.414;2022-10-26T03:50:11;13.20;99.90
3051;DHT22;1535;51.098;6.414;2022-10-26T03:52:39;13.30;99.90
3051;DHT22;1535;51.098;6.414;2022-10-26T03:55:07;13.30;99.90
3051;DHT22;1535;51.098;6.414;2022-10-26T03:57:39;13.30;99.90
3051;DHT22;1535;51.098;6.414;2022-10-26T04:00:07;13.30;99.90
3051;DHT22;1535;51.098;6.414;2022-10-26T04:02:34;13.30;99.90
3051;DHT22;1535;51.098;6.414;2022-10-26T04:05:01;13.30;99.90
3051;DHT22;1535;51.098;6.414;2022-10-26T04:07:28;13.30;99.90
3051;DHT22;1535;51.098;6.414;2022-10-26T04:09:55;13.30;99.90
3051;DHT22;1535;51.098;6.414;2022-10-26T04:12:22;13.30;99.90
3051;DHT22;1535;51.098;6.414;2022-10-26T04:14:51;13.30;99.90
3051;DHT22;1535;51.098;6.414;2022-10-26T04:17:18;13.20;99.90
3051;DHT22;1535;51.098;6.414;2022-10-26T04:19:45;13.20;99.90
3051;DHT22;1535;51.098;6.414;2022-10-26T04:22:12;13.20;99.90
3051;DHT22;1535;51.098;6.414;2022-10-26T04:24:40;13.20;99.90
3051;DHT22;1535;51.098;6.414;2022-10-26T04:27:07;13.20;99.90
3051;DHT22;1535;51.098;6.414;2022-10-26T04:29:34;13.10;99.90
3051;DHT22;1535;51.098;6.414;2022-10-26T04:32:02;13.20;99.90
3051;DHT22;1535;51.098;6.414;2022-10-26T04:34:29;13.20;99.90
3051;DHT22;1535;51.098;6.414;2022-10-26T04:36:56;13.20;99.90
3051;DHT22;1535;51.098;6.414;2022-10-26T04:39:24;13.20;99.90
3051;DHT22;1535;51.098;6.414;2022-10-26T04:41:50;13.30;99.90
3051;DHT22;1535;51.098;6.414;2022-10-26T04:44:19;13.30;99.90
3051;DHT22;1535;51.098;6.414;2022-10-26T04:46:47;13.40;99.90
3051;DHT22;1535;51.098;6.414;2022-10-26T04:49:15;13.50;99.90
3051;DHT22;1535;51.098;6.414;2022-10-26T04:51:42;13.60;99.90
3051;DHT22;1535;51.098;6.414;2022-10-26T04:54:09;13.60;99.90
3051;DHT22;1535;51.098;6.414;2022-10-26T04:56:37;13.60;99.90
3051;DHT22;1535;51.098;6.414;2022-10-26T04:59:04;13.70;99.90
3051;DHT22;1535;51.098;6.414;2022-10-26T05:01:31;13.70;99.90
3051;DHT22;1535;51.098;6.414;2022-10-26T05:03:58;13.70;99.90
3051;DHT22;1535;51.098;6.414;2022-10-26T05:06:25;13.70;99.90
3051;DHT22;1535;51.098;6.414;2022-10-26T05:08:52;13.70;99.90
3051;DHT22;1535;51.098;6.414;2022-10-26T05:11:19;13.70;99.90
3051;DHT22;1535;51.098;6.414;2022-10-26T05:13:46;13.70;99.90
3051;DHT22;1535;51.098;6.414;2022-10-26T05:16:13;13.70;99.90
3051;DHT22;1535;51.098;6.414;2022-10-26T05:18:40;13.70;99.90
3051;DHT22;1535;51.098;6.414;2022-10-26T05:21:08;13.80;99.90
3051;DHT22;1535;51.098;6.414;2022-10-26T05:23:36;13.90;99.90
3051;DHT22;1535;51.098;6.414;2022-10-26T05:26:03;13.90;99.90
3051;DHT22;1535;51.098;6.414;2022-10-26T05:28:30;13.90;99.90
3051;DHT22;1535;51.098;6.414;2022-10-26T05:30:57;13.90;99.90
3051;DHT22;1535;51.098;6.414;2022-10-26T05:33:24;13.90;99.90
3051;DHT22;1535;51.098;6.414;2022-10-26T05:35:53;13.90;99.90
3051;DHT22;1535;51.098;6.414;2022-10-26T05:38:20;13.90;99.90
3051;DHT22;1535;51.098;6.414;2022-10-26T05:40:50;13.90;99.90
3051;DHT22;1535;51.098;6.414;2022-10-26T05:43:18;14.00;99.90
3051;DHT22;1535;51.098;6.414;2022-10-26T05:45:45;14.00;99.90
3051;DHT22;1535;51.098;6.414;2022-10-26T05:48:12;14.00;99.90
3051;DHT22;1535;51.098;6.414;2022-10-26T05:50:39;14.00;99.90
3051;DHT22;1535;51.098;6.414;2022-10-26T05:53:07;14.00;99.90
3051;DHT22;1535;51.098;6.414;2022-10-26T05:55:35;14.10;99.90
3051;DHT22;1535;51.098;6.414;2022-10-26T05:58:07;14.00;99.90
3051;DHT22;1535;51.098;6.414;2022-10-26T06:00:35;14.10;99.90
3051;DHT22;1535;51.098;6.414;2022-10-26T06:03:19;14.10;99.90
3051;DHT22;1535;51.098;6.414;2022-10-26T06:05:52;14.10;99.90
3051;DHT22;1535;51.098;6.414;2022-10-26T06:08:19;14.20;99.90
3051;DHT22;1535;51.098;6.414;2022-10-26T06:10:47;14.20;99.90
3051;DHT22;1535;51.098;6.414;2022-10-26T06:13:15;14.20;99.90
3051;DHT22;1535;51.098;6.414;2022-10-26T06:15:50;14.40;99.90
3051;DHT22;1535;51.098;6.414;2022-10-26T06:18:25;14.30;99.90
3051;DHT22;1535;51.098;6.414;2022-10-26T06:21:08;14.30;99.90
3051;DHT22;1535;51.098;6.414;2022-10-26T06:23:42;14.30;99.90
3051;DHT22;1535;51.098;6.414;2022-10-26T06:26:19;14.30;99.90
3051;DHT22;1535;51.098;6.414;2022-10-26T06:28:55;14.30;99.90
3051;DHT22;1535;51.098;6.414;2022-10-26T06:31:24;14.30;99.90
3051;DHT22;1535;51.098;6.414;2022-10-26T06:33:57;14.30;99.90
3051;DHT22;1535;51.098;6.414;2022-10-26T06:36:25;14.30;99.90
3051;DHT22;1535;51.098;6.414;2022-10-26T06:38:56;14.30;99.90
3051;DHT22;1535;51.098;6.414;2022-10-26T06:41:25;14.40;99.90
3051;DHT22;1535;51.098;6.414;2022-10-26T06:43:54;14.50;99.90
3051;DHT22;1535;51.098;6.414;2022-10-26T06:46:28;14.60;99.90
3051;DHT22;1535;51.098;6.414;2022-10-26T06:49:01;14.70;99.90
3051;DHT22;1535;51.098;6.414;2022-10-26T06:51:37;14.60;99.90
3051;DHT22;1535;51.098;6.414;2022-10-26T06:54:10;14.60;99.90
3051;DHT22;1535;51.098;6.414;2022-10-26T06:56:40;14.60;99.90
3051;DHT22;1535;51.098;6.414;2022-10-26T06:59:14;14.60;99.90
3051;DHT22;1535;51.098;6.414;2022-10-26T07:01:43;14.60;99.90
3051;DHT22;1535;51.098;6.414;2022-10-26T07:04:10;14.70;99.90
3051;DHT22;1535;51.098;6.414;2022-10-26T07:06:37;14.70;99.90
3051;DHT22;1535;51.098;6.414;2022-10-26T07:09:04;14.70;99.90
3051;DHT22;1535;51.098;6.414;2022-10-26T07:11:31;14.80;99.90
3051;DHT22;1535;51.098;6.414;2022-10-26T07:13:58;14.90;99.90
3051;DHT22;1535;51.098;6.414;2022-10-26T07:16:27;15.00;99.90
3051;DHT22;1535;51.098;6.414;2022-10-26T07:18:53;15.00;99.90
3051;DHT22;1535;51.098;6.414;2022-10-26T07:21:21;15.10;99.90
3051;DHT22;1535;51.098;6.414;2022-10-26T07:23:47;15.10;99.90
3051;DHT22;1535;51.098;6.414;2022-10-26T07:26:14;15.20;99.90
3051;DHT22;1535;51.098;6.414;2022-10-26T07:28:41;15.10;99.90
3051;DHT22;1535;51.098;6.414;2022-10-26T07:31:08;15.10;99.90
3051;DHT22;1535;51.098;6.414;2022-10-26T07:33:36;15.00;99.90
3051;DHT22;1535;51.098;6.414;2022-10-26T07:36:03;15.00;99.90
3051;DHT22;1535;51.098;6.414;2022-10-26T07:38:29;15.10;99.90
3051;DHT22;1535;51.098;6.414;2022-10-26T07:40:56;15.20;99.90
3051;DHT22;1535;51.098;6.414;2022-10-26T07:43:23;15.20;99.90
3051;DHT22;1535;51.098;6.414;2022-10-26T07:45:50;15.30;99.90
3051;DHT22;1535;51.098;6.414;2022-10-26T07:48:17;15.30;99.90
3051;DHT22;1535;51.098;6.414;2022-10-26T07:50:45;15.30;99.90
3051;DHT22;1535;51.098;6.414;2022-10-26T07:53:12;15.30;99.90
3051;DHT22;1535;51.098;6.414;2022-10-26T07:55:39;15.30;99.90
3051;DHT22;1535;51.098;6.414;2022-10-26T07:58:06;15.30;99.90
3051;DHT22;1535;51.098;6.414;2022-10-26T08:00:33;15.30;99.90
3051;DHT22;1535;51.098;6.414;2022-10-26T08:03:00;15.30;99.90
3051;DHT22;1535;51.098;6.414;2022-10-26T08:05:27;15.40;99.90
3051;DHT22;1535;51.098;6.414;2022-10-26T08:07:55;15.50;99.90
3051;DHT22;1535;51.098;6.414;2022-10-26T08:10:22;15.60;99.90
3051;DHT22;1535;51.098;6.414;2022-10-26T08:12:51;15.70;99.90
3051;DHT22;1535;51.098;6.414;2022-10-26T08:15:19;15.80;99.90
3051;DHT22;1535;51.098;6.414;2022-10-26T08:17:47;16.00;99.90
3051;DHT22;1535;51.098;6.414;2022-10-26T08:20:15;16.00;99.90
3051;DHT22;1535;51.098;6.414;2022-10-26T08:22:41;15.90;99.90
3051;DHT22;1535;51.098;6.414;2022-10-26T08:25:09;15.90;99.90
3051;DHT22;1535;51.098;6.414;2022-10-26T08:27:37;15.90;99.90
3051;DHT22;1535;51.098;6.414;2022-10-26T08:30:04;15.80;99.90
3051;DHT22;1535;51.098;6.414;2022-10-26T08:32:31;15.80;99.90
3051;DHT22;1535;51.098;6.414;2022-10-26T08:34:58;15.90;99.90
3051;DHT22;1535;51.098;6.414;2022-10-26T08:37:26;16.00;99.90
3051;DHT22;1535;51.098;6.414;2022-10-26T08:39:53;16.10;99.90
3051;DHT22;1535;51.098;6.414;2022-10-26T08:42:24;16.10;99.90
3051;DHT22;1535;51.098;6.414;2022-10-26T08:44:59;16.30;99.90
3051;DHT22;1535;51.098;6.414;2022-10-26T08:47:30;16.30;99.90
3051;DHT22;1535;51.098;6.414;2022-10-26T08:50:03;16.30;99.90
3051;DHT22;1535;51.098;6.414;2022-10-26T08:52:36;16.30;99.90
3051;DHT22;1535;51.098;6.414;2022-10-26T08:55:09;16.60;99.90
3051;DHT22;1535;51.098;6.414;2022-10-26T08:57:42;16.70;99.90
3051;DHT22;1535;51.098;6.414;2022-10-26T09:00:11;16.60;99.90
3051;DHT22;1535;51.098;6.414;2022-10-26T09:02:40;16.60;99.90
3051;DHT22;1535;51.098;6.414;2022-10-26T09:05:14;16.70;99.90
3051;DHT22;1535;51.098;6.414;2022-10-26T09:07:48;16.70;99.90
3051;DHT22;1535;51.098;6.414;2022-10-26T09:10:28;16.80;99.90
3051;DHT22;1535;51.098;6.414;2022-10-26T09:13:03;16.90;99.90
3051;DHT22;1535;51.098;6.414;2022-10-26T09:15:39;17.10;99.90
3051;DHT22;1535;51.098;6.414;2022-10-26T09:18:23;17.20;99.90
3051;DHT22;1535;51.098;6.414;2022-10-26T09:21:12;17.20;99.90
3051;DHT22;1535;51.098;6.414;2022-10-26T09:23:53;17.30;99.90
3051;DHT22;1535;51.098;6.414;2022-10-26T09:26:32;17.40;99.90
3051;DHT22;1535;51.098;6.414;2022-10-26T09:29:06;17.60;99.90
3051;DHT22;1535;51.098;6.414;2022-10-26T09:31:39;17.80;99.90
3051;DHT22;1535;51.098;6.414;2022-10-26T09:34:07;17.90;99.90
3051;DHT22;1535;51.098;6.414;2022-10-26T09:36:38;18.00;99.90
3051;DHT22;1535;51.098;6.414;2022-10-26T09:39:12;18.00;99.90
3051;DHT22;1535;51.098;6.414;2022-10-26T09:41:43;18.10;99.90
3051;DHT22;1535;51.098;6.414;2022-10-26T09:44:18;18.20;99.90
3051;DHT22;1535;51.098;6.414;2022-10-26T09:46:54;18.20;99.90
3051;DHT22;1535;51.098;6.414;2022-10-26T09:49:27;18.20;99.90
3051;DHT22;1535;51.098;6.414;2022-10-26T09:51:57;18.30;99.90
3051;DHT22;1535;51.098;6.414;2022-10-26T09:54:24;18.40;99.90
3051;DHT22;1535;51.098;6.414;2022-10-26T09:56:53;18.60;99.90
3051;DHT22;1535;51.098;6.414;2022-10-26T09:59:23;18.70;99.90
3051;DHT22;1535;51.098;6.414;2022-10-26T10:01:50;18.80;99.90
3051;DHT22;1535;51.098;6.414;2022-10-26T10:04:19;19.00;99.90
3051;DHT22;1535;51.098;6.414;2022-10-26T10:06:48;19.00;99.90
3051;DHT22;1535;51.098;6.414;2022-10-26T10:09:16;19.20;99.90
3051;DHT22;1535;51.098;6.414;2022-10-26T10:11:45;19.40;99.90
3051;DHT22;1535;51.098;6.414;2022-10-26T10:14:20;19.90;99.90
3051;DHT22;1535;51.098;6.414;2022-10-26T10:16:53;20.40;99.90
3051;DHT22;1535;51.098;6.414;2022-10-26T10:19:23;21.00;99.90
3051;DHT22;1535;51.098;6.414;2022-10-26T10:21:53;21.00;99.90
3051;DHT22;1535;51.098;6.414;2022-10-26T10:24:26;20.90;99.90
3051;DHT22;1535;51.098;6.414;2022-10-26T10:26:59;21.00;99.90
3051;DHT22;1535;51.098;6.414;2022-10-26T10:29:27;21.40;99.90
3051;DHT22;1535;51.098;6.414;2022-10-26T10:31:57;21.70;99.90
3051;DHT22;1535;51.098;6.414;2022-10-26T10:34:24;21.60;99.90
3051;DHT22;1535;51.098;6.414;2022-10-26T10:36:51;21.80;99.90
3051;DHT22;1535;51.098;6.414;2022-10-26T10:39:37;21.50;99.90
3051;DHT22;1535;51.098;6.414;2022-10-26T10:42:10;21.50;99.90
3051;DHT22;1535;51.098;6.414;2022-10-26T10:44:42;21.70;99.90
3051;DHT22;1535;51.098;6.414;2022-10-26T10:47:18;21.70;99.90
3051;DHT22;1535;51.098;6.414;2022-10-26T10:49:51;21.80;99.90
3051;DHT22;1535;51.098;6.414;2022-10-26T10:52:24;22.10;99.90
3051;DHT22;1535;51.098;6.414;2022-10-26T10:55:02;22.40;99.90
3051;DHT22;1535;51.098;6.414;2022-10-26T10:57:39;22.30;99.90
3051;DHT22;1535;51.098;6.414;2022-10-26T11:00:12;22.30;99.90
3051;DHT22;1535;51.098;6.414;2022-10-26T11:03:02;22.30;99.90
3051;DHT22;1535;51.098;6.414;2022-10-26T11:05:58;22.40;99.90
3051;DHT22;1535;51.098;6.414;2022-10-26T11:08:29;22.50;99.90
3051;DHT22;1535;51.098;6.414;2022-10-26T11:10:59;22.60;99.90
3051;DHT22;1535;51.098;6.414;2022-10-26T11:13:32;22.90;99.90
3051;DHT22;1535;51.098;6.414;2022-10-26T11:16:03;23.10;99.90
3051;DHT22;1535;51.098;6.414;2022-10-26T11:18:35;23.20;99.90
3051;DHT22;1535;51.098;6.414;2022-10-26T11:21:13;23.20;99.90
3051;DHT22;1535;51.098;6.414;2022-10-26T11:23:45;22.80;99.90
3051;DHT22;1535;51.098;6.414;2022-10-26T11:26:16;22.30;99.90
3051;DHT22;1535;51.098;6.414;2022-10-26T11:28:48;22.30;99.90
3051;DHT22;1535;51.098;6.414;2022-10-26T11:31:19;22.80;99.90
3051;DHT22;1535;51.098;6.414;2022-10-26T11:33:56;23.10;99.90
3051;DHT22;1535;51.098;6.414;2022-10-26T11:36:47;23.20;99.90
3051;DHT22;1535;51.098;6.414;2022-10-26T11:39:19;23.30;99.90
3051;DHT22;1535;51.098;6.414;2022-10-26T11:41:52;23.00;99.90
3051;DHT22;1535;51.098;6.414;2022-10-26T11:44:25;23.30;99.90
3051;DHT22;1535;51.098;6.414;2022-10-26T11:46:55;23.60;99.90
3051;DHT22;1535;51.098;6.414;2022-10-26T11:49:28;23.70;99.90
3051;DHT22;1535;51.098;6.414;2022-10-26T11:52:01;23.50;99.90
3051;DHT22;1535;51.098;6.414;2022-10-26T11:54:34;23.70;99.90
3051;DHT22;1535;51.098;6.414;2022-10-26T11:57:04;23.50;99.90
3051;DHT22;1535;51.098;6.414;2022-10-26T11:59:36;23.60;99.90
3051;DHT22;1535;51.098;6.414;2022-10-26T12:02:11;23.40;99.90
3051;DHT22;1535;51.098;6.414;2022-10-26T12:04:43;23.30;99.90
3051;DHT22;1535;51.098;6.414;2022-10-26T12:07:19;23.40;99.90
3051;DHT22;1535;51.098;6.414;2022-10-26T12:09:47;23.80;99.90
3051;DHT22;1535;51.098;6.414;2022-10-26T12:12:20;23.90;99.90
3051;DHT22;1535;51.098;6.414;2022-10-26T12:14:55;24.10;99.90
3051;DHT22;1535;51.098;6.414;2022-10-26T12:17:30;24.50;99.90
3051;DHT22;1535;51.098;6.414;2022-10-26T12:20:10;24.60;99.90
3051;DHT22;1535;51.098;6.414;2022-10-26T12:22:44;24.50;99.90
3051;DHT22;1535;51.098;6.414;2022-10-26T12:25:19;24.10;99.90
3051;DHT22;1535;51.098;6.414;2022-10-26T12:27:54;24.40;99.90
3051;DHT22;1535;51.098;6.414;2022-10-26T12:30:30;24.30;99.90
3051;DHT22;1535;51.098;6.414;2022-10-26T12:32:58;24.30;99.90
3051;DHT22;1535;51.098;6.414;2022-10-26T12:35:40;24.00;99.90
3051;DHT22;1535;51.098;6.414;2022-10-26T12:41:24;23.20;99.90
3051;DHT22;1535;51.098;6.414;2022-10-26T12:44:00;23.30;99.90
3051;DHT22;1535;51.098;6.414;2022-10-26T12:46:39;23.60;99.90
3051;DHT22;1535;51.098;6.414;2022-10-26T12:52:46;24.00;99.90
3051;DHT22;1535;51.098;6.414;2022-10-26T12:55:25;23.80;99.90
3051;DHT22;1535;51.098;6.414;2022-10-26T13:01:23;23.70;99.90
3051;DHT22;1535;51.098;6.414;2022-10-26T13:04:02;23.90;99.90
3051;DHT22;1535;51.098;6.414;2022-10-26T13:06:45;23.80;99.90
3051;DHT22;1535;51.098;6.414;2022-10-26T13:09:20;23.70;99.90
3051;DHT22;1535;51.098;6.414;2022-10-26T13:11:50;24.00;99.90
3051;DHT22;1535;51.098;6.414;2022-10-26T13:14:20;24.40;99.90
3051;DHT22;1535;51.098;6.414;2022-10-26T13:16:48;24.50;99.90
3051;DHT22;1535;51.098;6.414;2022-10-26T13:19:24;24.60;99.90
3051;DHT22;1535;51.098;6.414;2022-10-26T13:21:52;24.90;99.90
3051;DHT22;1535;51.098;6.414;2022-10-26T13:24:26;25.10;99.90
3051;DHT22;1535;51.098;6.414;2022-10-26T13:27:23;25.40;99.90
3051;DHT22;1535;51.098;6.414;2022-10-26T13:30:15;25.40;99.90
3051;DHT22;1535;51.098;6.414;2022-10-26T13:32:49;25.10;99.90
3051;DHT22;1535;51.098;6.414;2022-10-26T13:35:19;25.00;99.90
3051;DHT22;1535;51.098;6.414;2022-10-26T13:37:49;24.90;99.90
3051;DHT22;1535;51.098;6.414;2022-10-26T13:40:20;25.40;99.90
3051;DHT22;1535;51.098;6.414;2022-10-26T13:42:50;25.40;99.90
3051;DHT22;1535;51.098;6.414;2022-10-26T13:45:20;25.10;99.90
3051;DHT22;1535;51.098;6.414;2022-10-26T13:47:54;25.20;99.90
3051;DHT22;1535;51.098;6.414;2022-10-26T13:50:24;24.90;99.90
3051;DHT22;1535;51.098;6.414;2022-10-26T13:52:55;25.10;99.90
3051;DHT22;1535;51.098;6.414;2022-10-26T13:55:28;25.10;99.90
3051;DHT22;1535;51.098;6.414;2022-10-26T13:58:08;24.90;99.90
3051;DHT22;1535;51.098;6.414;2022-10-26T14:00:36;24.70;99.90
3051;DHT22;1535;51.098;6.414;2022-10-26T14:03:12;24.60;99.90
3051;DHT22;1535;51.098;6.414;2022-10-26T14:05:41;24.70;99.90
3051;DHT22;1535;51.098;6.414;2022-10-26T14:08:15;24.70;99.90
3051;DHT22;1535;51.098;6.414;2022-10-26T14:10:47;24.80;99.90
3051;DHT22;1535;51.098;6.414;2022-10-26T14:13:21;24.40;99.90
3051;DHT22;1535;51.098;6.414;2022-10-26T14:15:49;24.30;99.90
3051;DHT22;1535;51.098;6.414;2022-10-26T14:18:19;24.30;99.90
3051;DHT22;1535;51.098;6.414;2022-10-26T14:20:50;24.30;99.90
3051;DHT22;1535;51.098;6.414;2022-10-26T14:23:27;24.50;99.90
3051;DHT22;1535;51.098;6.414;2022-10-26T14:25:55;24.60;99.90
3051;DHT22;1535;51.098;6.414;2022-10-26T14:28:23;24.50;99.90
3051;DHT22;1535;51.098;6.414;2022-10-26T14:30:51;24.50;99.90
3051;DHT22;1535;51.098;6.414;2022-10-26T14:33:18;24.70;99.90
3051;DHT22;1535;51.098;6.414;2022-10-26T14:35:46;24.50;99.90
3051;DHT22;1535;51.098;6.414;2022-10-26T14:38:17;24.40;99.90
3051;DHT22;1535;51.098;6.414;2022-10-26T14:40:45;24.20;99.90
3051;DHT22;1535;51.098;6.414;2022-10-26T14:43:17;23.80;99.90
3051;DHT22;1535;51.098;6.414;2022-10-26T14:45:47;23.80;99.90
3051;DHT22;1535;51.098;6.414;2022-10-26T14:48:23;23.50;99.90
3051;DHT22;1535;51.098;6.414;2022-10-26T14:50:58;23.50;99.90
3051;DHT22;1535;51.098;6.414;2022-10-26T14:53:30;23.00;99.90
3051;DHT22;1535;51.098;6.414;2022-10-26T14:56:01;23.20;99.90
3051;DHT22;1535;51.098;6.414;2022-10-26T14:58:31;23.10;99.90
3051;DHT22;1535;51.098;6.414;2022-10-26T15:01:30;23.20;99.90
3051;DHT22;1535;51.098;6.414;2022-10-26T15:03:59;22.90;99.90
3051;DHT22;1535;51.098;6.414;2022-10-26T15:06:36;22.60;99.90
3051;DHT22;1535;51.098;6.414;2022-10-26T15:09:03;22.50;99.90
3051;DHT22;1535;51.098;6.414;2022-10-26T15:11:32;22.40;99.90
3051;DHT22;1535;51.098;6.414;2022-10-26T15:14:01;22.50;99.90
3051;DHT22;1535;51.098;6.414;2022-10-26T15:16:30;22.40;99.90
3051;DHT22;1535;51.098;6.414;2022-10-26T15:19:05;22.30;99.90
3051;DHT22;1535;51.098;6.414;2022-10-26T15:21:34;22.20;99.90
3051;DHT22;1535;51.098;6.414;2022-10-26T15:24:02;22.10;99.90
3051;DHT22;1535;51.098;6.414;2022-10-26T15:26:41;22.00;99.90
3051;DHT22;1535;51.098;6.414;2022-10-26T15:29:33;21.80;99.90
3051;DHT22;1535;51.098;6.414;2022-10-26T15:32:01;21.70;99.90
3051;DHT22;1535;51.098;6.414;2022-10-26T15:34:28;21.80;99.90
3051;DHT22;1535;51.098;6.414;2022-10-26T15:36:55;21.80;99.90
3051;DHT22;1535;51.098;6.414;2022-10-26T15:39:24;21.70;99.90
3051;DHT22;1535;51.098;6.414;2022-10-26T15:41:51;21.60;99.90
3051;DHT22;1535;51.098;6.414;2022-10-26T15:44:20;21.40;99.90
3051;DHT22;1535;51.098;6.414;2022-10-26T15:46:48;21.30;99.90
3051;DHT22;1535;51.098;6.414;2022-10-26T15:49:17;21.30;99.90
3051;DHT22;1535;51.098;6.414;2022-10-26T15:51:46;21.20;99.90
3051;DHT22;1535;51.098;6.414;2022-10-26T15:54:14;21.10;99.90
3051;DHT22;1535;51.098;6.414;2022-10-26T15:56:41;21.00;99.90
3051;DHT22;1535;51.098;6.414;2022-10-26T15:59:13;20.90;99.90
3051;DHT22;1535;51.098;6.414;2022-10-26T16:01:42;20.70;99.90
3051;DHT22;1535;51.098;6.414;2022-10-26T16:04:09;20.40;99.90
3051;DHT22;1535;51.098;6.414;2022-10-26T16:06:39;20.30;99.90
3051;DHT22;1535;51.098;6.414;2022-10-26T16:09:10;20.20;99.90
3051;DHT22;1535;51.098;6.414;2022-10-26T16:11:38;20.10;99.90
3051;DHT22;1535;51.098;6.414;2022-10-26T16:14:06;19.90;99.90
3051;DHT22;1535;51.098;6.414;2022-10-26T16:16:32;19.80;99.90
3051;DHT22;1535;51.098;6.414;2022-10-26T16:19:01;19.60;99.90
3051;DHT22;1535;51.098;6.414;2022-10-26T16:21:28;19.40;99.90
3051;DHT22;1535;51.098;6.414;2022-10-26T16:23:55;19.20;99.90
3051;DHT22;1535;51.098;6.414;2022-10-26T16:26:23;19.00;99.90
3051;DHT22;1535;51.098;6.414;2022-10-26T16:28:51;19.00;99.90
3051;DHT22;1535;51.098;6.414;2022-10-26T16:31:19;19.00;99.90
3051;DHT22;1535;51.098;6.414;2022-10-26T16:33:46;18.70;99.90
3051;DHT22;1535;51.098;6.414;2022-10-26T16:36:15;18.60;99.90
3051;DHT22;1535;51.098;6.414;2022-10-26T16:38:41;18.60;99.90
3051;DHT22;1535;51.098;6.414;2022-10-26T16:41:10;18.60;99.90